sensor_id;sensor_type;location;lat;lon;timestamp;P1;durP1;ratioP1;P2;durP2;ratioP2
10699;SDS011;5401;41.986;21.452;2024-01-07T00:02:07;45.27;;;36.63;;
10699;SDS011;5401;41.986;21.452;2024-01-07T00:04:37;59.47;;;39.17;;
10699;SDS011;5401;41.986;21.452;2024-01-07T00:07:05;49.47;;;36.57;;
10699;SDS011;5401;41.986;21.452;2024-01-07T00:09:33;47.07;;;38.00;;
10699;SDS011;5401;41.986;21.452;2024-01-07T00:12:03;46.90;;;35.77;;
10699;SDS011;5401;41.986;21.452;2024-01-07T00:14:34;44.37;;;36.47;;
10699;SDS011;5401;41.986;21.452;2024-01-07T00:17:05;46.03;;;34.83;;
10699;SDS011;5401;41.986;21.452;2024-01-07T00:19:33;53.87;;;36.27;;
10699;SDS011;5401;41.986;21.452;2024-01-07T00:22:04;41.57;;;33.10;;
10699;SDS011;5401;41.986;21.452;2024-01-07T00:24:32;44.40;;;32.57;;
10699;SDS011;5401;41.986;21.452;2024-01-07T00:27:01;46.40;;;33.17;;
10699;SDS011;5401;41.986;21.452;2024-01-07T00:29:31;50.10;;;33.70;;
10699;SDS011;5401;41.986;21.452;2024-01-07T00:32:01;41.03;;;32.23;;
10699;SDS011;5401;41.986;21.452;2024-01-07T00:34:29;47.70;;;32.13;;
10699;SDS011;5401;41.986;21.452;2024-01-07T00:36:59;47.33;;;32.27;;
10699;SDS011;5401;41.986;21.452;2024-01-07T00:39:33;37.80;;;28.90;;
10699;SDS011;5401;41.986;21.452;2024-01-07T00:42:01;46.37;;;29.60;;
10699;SDS011;5401;41.986;21.452;2024-01-07T00:44:30;38.03;;;27.10;;
10699;SDS011;5401;41.986;21.452;2024-01-07T00:46:59;36.53;;;27.07;;
10699;SDS011;5401;41.986;21.452;2024-01-07T00:52:49;51.03;;;31.27;;
10699;SDS011;5401;41.986;21.452;2024-01-07T00:55:18;31.27;;;25.73;;
10699;SDS011;5401;41.986;21.452;2024-01-07T00:57:47;38.33;;;26.10;;
10699;SDS011;5401;41.986;21.452;2024-01-07T01:00:16;55.40;;;32.40;;
10699;SDS011;5401;41.986;21.452;2024-01-07T01:02:45;30.87;;;26.27;;
10699;SDS011;5401;41.986;21.452;2024-01-07T01:05:13;35.97;;;27.33;;
10699;SDS011;5401;41.986;21.452;2024-01-07T01:07:41;41.83;;;29.67;;
10699;SDS011;5401;41.986;21.452;2024-01-07T01:10:09;37.37;;;27.70;;
10699;SDS011;5401;41.986;21.452;2024-01-07T01:12:37;35.33;;;27.23;;
10699;SDS011;5401;41.986;21.452;2024-01-07T01:15:07;30.20;;;26.07;;
10699;SDS011;5401;41.986;21.452;2024-01-07T01:17:36;40.50;;;28.23;;
10699;SDS011;5401;41.986;21.452;2024-01-07T01:20:04;33.73;;;26.10;;
10699;SDS011;5401;41.986;21.452;2024-01-07T01:22:33;32.23;;;24.50;;
10699;SDS011;5401;41.986;21.452;2024-01-07T01:25:00;47.73;;;30.97;;
10699;SDS011;5401;41.986;21.452;2024-01-07T01:27:29;28.40;;;22.07;;
10699;SDS011;5401;41.986;21.452;2024-01-07T01:32:29;39.63;;;25.27;;
10699;SDS011;5401;41.986;21.452;2024-01-07T01:34:56;18.33;;;14.83;;
10699;SDS011;5401;41.986;21.452;2024-01-07T01:37:24;18.53;;;12.53;;
10699;SDS011;5401;41.986;21.452;2024-01-07T01:39:52;32.83;;;19.07;;
10699;SDS011;5401;41.986;21.452;2024-01-07T01:42:20;20.53;;;13.63;;
10699;SDS011;5401;41.986;21.452;2024-01-07T01:44:48;18.07;;;14.13;;
10699;SDS011;5401;41.986;21.452;2024-01-07T01:47:16;24.47;;;17.43;;
10699;SDS011;5401;41.986;21.452;2024-01-07T01:49:45;21.50;;;16.43;;
10699;SDS011;5401;41.986;21.452;2024-01-07T01:52:13;23.73;;;16.17;;
10699;SDS011;5401;41.986;21.452;2024-01-07T01:54:41;21.30;;;16.23;;
10699;SDS011;5401;41.986;21.452;2024-01-07T01:57:09;31.67;;;20.23;;
10699;SDS011;5401;41.986;21.452;2024-01-07T01:59:44;26.17;;;19.53;;
10699;SDS011;5401;41.986;21.452;2024-01-07T02:02:11;28.70;;;20.90;;
10699;SDS011;5401;41.986;21.452;2024-01-07T02:04:40;29.53;;;22.17;;
10699;SDS011;5401;41.986;21.452;2024-01-07T02:07:09;27.57;;;21.27;;
10699;SDS011;5401;41.986;21.452;2024-01-07T02:09:37;33.43;;;22.30;;
10699;SDS011;5401;41.986;21.452;2024-01-07T02:12:07;41.80;;;28.10;;
10699;SDS011;5401;41.986;21.452;2024-01-07T02:14:37;28.43;;;21.83;;
10699;SDS011;5401;41.986;21.452;2024-01-07T02:17:05;28.97;;;23.63;;
10699;SDS011;5401;41.986;21.452;2024-01-07T02:19:33;50.87;;;32.73;;
10699;SDS011;5401;41.986;21.452;2024-01-07T02:22:01;39.80;;;28.57;;
10699;SDS011;5401;41.986;21.452;2024-01-07T02:24:31;41.93;;;27.77;;
10699;SDS011;5401;41.986;21.452;2024-01-07T02:26:58;51.10;;;33.07;;
10699;SDS011;5401;41.986;21.452;2024-01-07T02:29:28;35.53;;;27.13;;
10699;SDS011;5401;41.986;21.452;2024-01-07T02:31:55;33.70;;;25.07;;
10699;SDS011;5401;41.986;21.452;2024-01-07T02:34:23;39.63;;;28.63;;
10699;SDS011;5401;41.986;21.452;2024-01-07T02:36:51;32.00;;;25.03;;
10699;SDS011;5401;41.986;21.452;2024-01-07T02:41:58;41.13;;;29.77;;
10699;SDS011;5401;41.986;21.452;2024-01-07T02:44:25;38.13;;;29.70;;
10699;SDS011;5401;41.986;21.452;2024-01-07T02:46:53;38.20;;;28.40;;
10699;SDS011;5401;41.986;21.452;2024-01-07T02:49:20;50.17;;;33.33;;
10699;SDS011;5401;41.986;21.452;2024-01-07T02:51:48;39.07;;;28.30;;
10699;SDS011;5401;41.986;21.452;2024-01-07T02:54:16;33.77;;;26.53;;
10699;SDS011;5401;41.986;21.452;2024-01-07T02:56:43;31.23;;;23.60;;
10699;SDS011;5401;41.986;21.452;2024-01-07T02:59:12;44.60;;;31.30;;
10699;SDS011;5401;41.986;21.452;2024-01-07T03:01:40;34.00;;;25.67;;
10699;SDS011;5401;41.986;21.452;2024-01-07T03:04:09;35.63;;;26.63;;
10699;SDS011;5401;41.986;21.452;2024-01-07T03:06:37;49.20;;;34.17;;
10699;SDS011;5401;41.986;21.452;2024-01-07T03:09:05;38.47;;;27.73;;
10699;SDS011;5401;41.986;21.452;2024-01-07T03:11:33;39.90;;;27.87;;
10699;SDS011;5401;41.986;21.452;2024-01-07T03:14:05;43.40;;;29.97;;
10699;SDS011;5401;41.986;21.452;2024-01-07T03:16:34;33.40;;;25.87;;
10699;SDS011;5401;41.986;21.452;2024-01-07T03:19:02;33.77;;;25.37;;
10699;SDS011;5401;41.986;21.452;2024-01-07T03:21:30;47.50;;;31.97;;
10699;SDS011;5401;41.986;21.452;2024-01-07T03:23:57;34.50;;;26.07;;
10699;SDS011;5401;41.986;21.452;2024-01-07T03:26:28;45.17;;;30.97;;
10699;SDS011;5401;41.986;21.452;2024-01-07T03:28:58;54.03;;;34.43;;
10699;SDS011;5401;41.986;21.452;2024-01-07T03:31:27;35.10;;;27.97;;
10699;SDS011;5401;41.986;21.452;2024-01-07T03:33:57;38.50;;;27.70;;
10699;SDS011;5401;41.986;21.452;2024-01-07T03:36:24;41.87;;;30.33;;
10699;SDS011;5401;41.986;21.452;2024-01-07T03:38:52;38.77;;;27.40;;
10699;SDS011;5401;41.986;21.452;2024-01-07T03:41:19;40.83;;;30.00;;
10699;SDS011;5401;41.986;21.452;2024-01-07T03:43:47;32.93;;;26.47;;
10699;SDS011;5401;41.986;21.452;2024-01-07T03:46:15;44.27;;;30.20;;
10699;SDS011;5401;41.986;21.452;2024-01-07T03:48:44;29.57;;;22.90;;
10699;SDS011;5401;41.986;21.452;2024-01-07T03:51:13;22.97;;;18.53;;
10699;SDS011;5401;41.986;21.452;2024-01-07T03:53:41;39.80;;;25.77;;
10699;SDS011;5401;41.986;21.452;2024-01-07T03:56:08;26.70;;;18.17;;
10699;SDS011;5401;41.986;21.452;2024-01-07T03:58:36;25.80;;;19.50;;
10699;SDS011;5401;41.986;21.452;2024-01-07T04:01:03;43.63;;;26.83;;
10699;SDS011;5401;41.986;21.452;2024-01-07T04:03:31;28.40;;;20.80;;
10699;SDS011;5401;41.986;21.452;2024-01-07T04:05:59;19.53;;;15.00;;
10699;SDS011;5401;41.986;21.452;2024-01-07T04:08:28;24.03;;;15.83;;
10699;SDS011;5401;41.986;21.452;2024-01-07T04:10:55;18.17;;;13.90;;
10699;SDS011;5401;41.986;21.452;2024-01-07T04:13:23;14.77;;;12.47;;
10699;SDS011;5401;41.986;21.452;2024-01-07T04:15:51;16.53;;;12.37;;
10699;SDS011;5401;41.986;21.452;2024-01-07T04:18:18;27.57;;;14.73;;
10699;SDS011;5401;41.986;21.452;2024-01-07T04:20:46;12.60;;;8.77;;
10699;SDS011;5401;41.986;21.452;2024-01-07T04:23:13;14.63;;;8.83;;
10699;SDS011;5401;41.986;21.452;2024-01-07T04:25:46;31.27;;;17.05;;
10699;SDS011;5401;41.986;21.452;2024-01-07T04:28:13;16.97;;;11.77;;
10699;SDS011;5401;41.986;21.452;2024-01-07T04:30:41;14.07;;;10.37;;
10699;SDS011;5401;41.986;21.452;2024-01-07T04:33:08;32.30;;;17.00;;
10699;SDS011;5401;41.986;21.452;2024-01-07T04:35:36;16.50;;;11.50;;
10699;SDS011;5401;41.986;21.452;2024-01-07T04:38:03;19.50;;;13.33;;
10699;SDS011;5401;41.986;21.452;2024-01-07T04:40:31;23.67;;;15.30;;
10699;SDS011;5401;41.986;21.452;2024-01-07T04:43:00;24.17;;;16.27;;
10699;SDS011;5401;41.986;21.452;2024-01-07T04:45:27;15.13;;;11.87;;
10699;SDS011;5401;41.986;21.452;2024-01-07T04:47:55;13.87;;;10.93;;
10699;SDS011;5401;41.986;21.452;2024-01-07T04:50:23;29.97;;;17.03;;
10699;SDS011;5401;41.986;21.452;2024-01-07T04:52:50;16.27;;;11.63;;
10699;SDS011;5401;41.986;21.452;2024-01-07T04:55:18;15.40;;;12.07;;
10699;SDS011;5401;41.986;21.452;2024-01-07T04:57:45;30.90;;;17.30;;
10699;SDS011;5401;41.986;21.452;2024-01-07T05:00:15;14.10;;;11.50;;
10699;SDS011;5401;41.986;21.452;2024-01-07T05:02:43;16.87;;;13.53;;
10699;SDS011;5401;41.986;21.452;2024-01-07T05:05:10;31.10;;;19.43;;
10699;SDS011;5401;41.986;21.452;2024-01-07T05:07:38;21.67;;;15.80;;
10699;SDS011;5401;41.986;21.452;2024-01-07T05:10:06;20.40;;;16.03;;
10699;SDS011;5401;41.986;21.452;2024-01-07T05:12:34;26.90;;;16.63;;
10699;SDS011;5401;41.986;21.452;2024-01-07T05:15:02;32.17;;;20.97;;
10699;SDS011;5401;41.986;21.452;2024-01-07T05:17:33;22.77;;;17.53;;
10699;SDS011;5401;41.986;21.452;2024-01-07T05:20:00;23.83;;;18.80;;
10699;SDS011;5401;41.986;21.452;2024-01-07T05:22:28;37.77;;;25.03;;
10699;SDS011;5401;41.986;21.452;2024-01-07T05:24:57;31.37;;;22.30;;
10699;SDS011;5401;41.986;21.452;2024-01-07T05:27:25;27.70;;;22.43;;
10699;SDS011;5401;41.986;21.452;2024-01-07T05:29:53;42.03;;;29.80;;
10699;SDS011;5401;41.986;21.452;2024-01-07T05:32:22;32.37;;;26.27;;
10699;SDS011;5401;41.986;21.452;2024-01-07T05:34:51;34.20;;;25.90;;
10699;SDS011;5401;41.986;21.452;2024-01-07T05:37:18;43.43;;;30.93;;
10699;SDS011;5401;41.986;21.452;2024-01-07T05:39:46;32.47;;;25.57;;
10699;SDS011;5401;41.986;21.452;2024-01-07T05:42:14;31.27;;;26.67;;
10699;SDS011;5401;41.986;21.452;2024-01-07T05:44:41;35.97;;;27.63;;
10699;SDS011;5401;41.986;21.452;2024-01-07T05:47:09;41.07;;;28.97;;
10699;SDS011;5401;41.986;21.452;2024-01-07T05:49:37;34.07;;;26.97;;
10699;SDS011;5401;41.986;21.452;2024-01-07T05:52:06;34.67;;;27.37;;
10699;SDS011;5401;41.986;21.452;2024-01-07T05:54:33;53.07;;;30.83;;
10699;SDS011;5401;41.986;21.452;2024-01-07T05:57:01;32.60;;;25.67;;
10699;SDS011;5401;41.986;21.452;2024-01-07T05:59:28;35.80;;;25.23;;
10699;SDS011;5401;41.986;21.452;2024-01-07T06:01:58;48.83;;;31.07;;
10699;SDS011;5401;41.986;21.452;2024-01-07T06:04:26;32.90;;;25.43;;
10699;SDS011;5401;41.986;21.452;2024-01-07T06:06:53;31.03;;;26.37;;
10699;SDS011;5401;41.986;21.452;2024-01-07T06:09:22;41.43;;;29.03;;
10699;SDS011;5401;41.986;21.452;2024-01-07T06:11:51;31.80;;;25.60;;
10699;SDS011;5401;41.986;21.452;2024-01-07T06:14:18;35.37;;;26.83;;
10699;SDS011;5401;41.986;21.452;2024-01-07T06:16:46;34.77;;;27.40;;
10699;SDS011;5401;41.986;21.452;2024-01-07T06:19:16;44.67;;;30.17;;
10699;SDS011;5401;41.986;21.452;2024-01-07T06:21:44;33.30;;;24.87;;
10699;SDS011;5401;41.986;21.452;2024-01-07T06:24:12;34.20;;;26.17;;
10699;SDS011;5401;41.986;21.452;2024-01-07T06:26:42;45.43;;;28.60;;
10699;SDS011;5401;41.986;21.452;2024-01-07T06:29:10;29.47;;;24.37;;
10699;SDS011;5401;41.986;21.452;2024-01-07T06:31:42;27.80;;;22.30;;
10699;SDS011;5401;41.986;21.452;2024-01-07T06:34:12;40.43;;;27.63;;
10699;SDS011;5401;41.986;21.452;2024-01-07T06:36:40;15.80;;;11.90;;
10699;SDS011;5401;41.986;21.452;2024-01-07T06:39:08;20.40;;;14.97;;
10699;SDS011;5401;41.986;21.452;2024-01-07T06:41:36;30.57;;;19.47;;
10699;SDS011;5401;41.986;21.452;2024-01-07T06:44:05;16.87;;;13.67;;
10699;SDS011;5401;41.986;21.452;2024-01-07T06:46:33;31.27;;;24.17;;
10699;SDS011;5401;41.986;21.452;2024-01-07T06:49:02;52.77;;;33.30;;
10699;SDS011;5401;41.986;21.452;2024-01-07T06:51:30;39.90;;;31.47;;
10699;SDS011;5401;41.986;21.452;2024-01-07T06:53:57;37.30;;;28.53;;
10699;SDS011;5401;41.986;21.452;2024-01-07T06:56:25;46.77;;;31.60;;
10699;SDS011;5401;41.986;21.452;2024-01-07T06:58:53;32.03;;;25.93;;
10699;SDS011;5401;41.986;21.452;2024-01-07T07:01:22;34.93;;;25.70;;
10699;SDS011;5401;41.986;21.452;2024-01-07T07:03:50;40.17;;;28.43;;
10699;SDS011;5401;41.986;21.452;2024-01-07T07:06:19;39.27;;;28.53;;
10699;SDS011;5401;41.986;21.452;2024-01-07T07:08:47;33.90;;;27.63;;
10699;SDS011;5401;41.986;21.452;2024-01-07T07:11:15;30.67;;;25.10;;
10699;SDS011;5401;41.986;21.452;2024-01-07T07:13:44;47.57;;;32.17;;
10699;SDS011;5401;41.986;21.452;2024-01-07T07:16:12;51.70;;;37.73;;
10699;SDS011;5401;41.986;21.452;2024-01-07T07:18:41;39.93;;;30.67;;
10699;SDS011;5401;41.986;21.452;2024-01-07T07:21:09;53.67;;;33.43;;
10699;SDS011;5401;41.986;21.452;2024-01-07T07:23:37;33.70;;;25.83;;
10699;SDS011;5401;41.986;21.452;2024-01-07T07:26:05;32.63;;;25.43;;
10699;SDS011;5401;41.986;21.452;2024-01-07T07:28:35;52.87;;;30.50;;
10699;SDS011;5401;41.986;21.452;2024-01-07T07:31:02;33.03;;;22.43;;
10699;SDS011;5401;41.986;21.452;2024-01-07T07:33:30;29.50;;;22.77;;
10699;SDS011;5401;41.986;21.452;2024-01-07T07:36:00;38.43;;;27.10;;
10699;SDS011;5401;41.986;21.452;2024-01-07T07:38:28;29.57;;;23.97;;
10699;SDS011;5401;41.986;21.452;2024-01-07T07:40:55;27.23;;;23.77;;
10699;SDS011;5401;41.986;21.452;2024-01-07T07:43:24;30.67;;;24.37;;
10699;SDS011;5401;41.986;21.452;2024-01-07T07:45:52;35.73;;;25.83;;
10699;SDS011;5401;41.986;21.452;2024-01-07T07:48:20;28.07;;;23.03;;
10699;SDS011;5401;41.986;21.452;2024-01-07T07:50:48;27.53;;;21.93;;
10699;SDS011;5401;41.986;21.452;2024-01-07T07:53:17;46.87;;;28.30;;
10699;SDS011;5401;41.986;21.452;2024-01-07T07:55:46;20.07;;;16.53;;
10699;SDS011;5401;41.986;21.452;2024-01-07T07:58:16;22.33;;;15.63;;
10699;SDS011;5401;41.986;21.452;2024-01-07T08:00:45;33.17;;;20.23;;
10699;SDS011;5401;41.986;21.452;2024-01-07T08:03:16;19.20;;;15.73;;
10699;SDS011;5401;41.986;21.452;2024-01-07T08:05:45;24.77;;;17.83;;
10699;SDS011;5401;41.986;21.452;2024-01-07T08:08:13;46.87;;;24.93;;
10699;SDS011;5401;41.986;21.452;2024-01-07T08:10:44;21.47;;;17.80;;
10699;SDS011;5401;41.986;21.452;2024-01-07T08:13:13;19.87;;;17.30;;
10699;SDS011;5401;41.986;21.452;2024-01-07T08:15:41;43.77;;;24.77;;
10699;SDS011;5401;41.986;21.452;2024-01-07T08:18:09;22.07;;;18.23;;
10699;SDS011;5401;41.986;21.452;2024-01-07T08:20:36;22.17;;;17.70;;
10699;SDS011;5401;41.986;21.452;2024-01-07T08:23:04;33.97;;;21.60;;
10699;SDS011;5401;41.986;21.452;2024-01-07T08:25:34;32.83;;;23.83;;
10699;SDS011;5401;41.986;21.452;2024-01-07T08:28:04;26.73;;;19.37;;
10699;SDS011;5401;41.986;21.452;2024-01-07T08:30:32;33.60;;;22.17;;
10699;SDS011;5401;41.986;21.452;2024-01-07T08:33:00;20.57;;;15.80;;
10699;SDS011;5401;41.986;21.452;2024-01-07T08:35:28;18.33;;;14.83;;
10699;SDS011;5401;41.986;21.452;2024-01-07T08:37:56;20.80;;;15.93;;
10699;SDS011;5401;41.986;21.452;2024-01-07T08:40:28;21.37;;;15.90;;
10699;SDS011;5401;41.986;21.452;2024-01-07T08:42:57;17.73;;;14.27;;
10699;SDS011;5401;41.986;21.452;2024-01-07T08:45:27;19.90;;;14.33;;
10699;SDS011;5401;41.986;21.452;2024-01-07T08:47:55;22.13;;;16.10;;
10699;SDS011;5401;41.986;21.452;2024-01-07T08:50:24;19.97;;;15.27;;
10699;SDS011;5401;41.986;21.452;2024-01-07T08:52:57;22.67;;;16.77;;
10699;SDS011;5401;41.986;21.452;2024-01-07T08:55:25;24.53;;;16.73;;
10699;SDS011;5401;41.986;21.452;2024-01-07T08:57:55;19.60;;;15.33;;
10699;SDS011;5401;41.986;21.452;2024-01-07T09:00:31;30.23;;;18.23;;
10699;SDS011;5401;41.986;21.452;2024-01-07T09:03:04;18.63;;;12.57;;
10699;SDS011;5401;41.986;21.452;2024-01-07T09:05:35;13.10;;;10.50;;
10699;SDS011;5401;41.986;21.452;2024-01-07T09:08:10;33.33;;;18.00;;
10699;SDS011;5401;41.986;21.452;2024-01-07T09:10:40;14.43;;;11.13;;
10699;SDS011;5401;41.986;21.452;2024-01-07T09:13:10;14.53;;;11.10;;
10699;SDS011;5401;41.986;21.452;2024-01-07T09:15:40;27.30;;;16.07;;
10699;SDS011;5401;41.986;21.452;2024-01-07T09:18:10;19.33;;;12.13;;
10699;SDS011;5401;41.986;21.452;2024-01-07T09:20:40;18.50;;;11.43;;
10699;SDS011;5401;41.986;21.452;2024-01-07T09:23:10;53.63;;;20.80;;
10699;SDS011;5401;41.986;21.452;2024-01-07T09:25:43;19.30;;;11.50;;
10699;SDS011;5401;41.986;21.452;2024-01-07T09:28:15;22.43;;;12.17;;
10699;SDS011;5401;41.986;21.452;2024-01-07T09:30:45;21.93;;;12.33;;
10699;SDS011;5401;41.986;21.452;2024-01-07T09:33:15;18.80;;;13.53;;
10699;SDS011;5401;41.986;21.452;2024-01-07T09:35:43;29.00;;;19.10;;
10699;SDS011;5401;41.986;21.452;2024-01-07T09:38:15;24.33;;;16.57;;
10699;SDS011;5401;41.986;21.452;2024-01-07T09:40:44;14.63;;;11.47;;
10699;SDS011;5401;41.986;21.452;2024-01-07T09:43:14;21.00;;;15.07;;
10699;SDS011;5401;41.986;21.452;2024-01-07T09:45:44;16.97;;;13.97;;
10699;SDS011;5401;41.986;21.452;2024-01-07T09:48:17;16.40;;;12.63;;
10699;SDS011;5401;41.986;21.452;2024-01-07T09:50:44;32.93;;;17.33;;
10699;SDS011;5401;41.986;21.452;2024-01-07T09:53:14;18.07;;;11.93;;
10699;SDS011;5401;41.986;21.452;2024-01-07T09:55:46;15.27;;;11.60;;
10699;SDS011;5401;41.986;21.452;2024-01-07T09:58:22;24.97;;;15.67;;
10699;SDS011;5401;41.986;21.452;2024-01-07T10:00:56;15.17;;;11.97;;
10699;SDS011;5401;41.986;21.452;2024-01-07T10:03:28;15.07;;;11.60;;
10699;SDS011;5401;41.986;21.452;2024-01-07T10:05:59;16.17;;;13.33;;
10699;SDS011;5401;41.986;21.452;2024-01-07T10:08:29;16.27;;;12.07;;
10699;SDS011;5401;41.986;21.452;2024-01-07T10:10:58;17.63;;;13.30;;
10699;SDS011;5401;41.986;21.452;2024-01-07T10:13:28;20.00;;;15.90;;
10699;SDS011;5401;41.986;21.452;2024-01-07T10:15:57;16.67;;;13.83;;
10699;SDS011;5401;41.986;21.452;2024-01-07T10:18:27;19.40;;;14.73;;
10699;SDS011;5401;41.986;21.452;2024-01-07T10:21:01;19.00;;;14.80;;
10699;SDS011;5401;41.986;21.452;2024-01-07T10:23:30;17.63;;;14.17;;
10699;SDS011;5401;41.986;21.452;2024-01-07T10:25:58;22.00;;;15.90;;
10699;SDS011;5401;41.986;21.452;2024-01-07T10:28:31;15.30;;;13.33;;
10699;SDS011;5401;41.986;21.452;2024-01-07T10:31:00;18.13;;;13.93;;
10699;SDS011;5401;41.986;21.452;2024-01-07T10:33:30;18.70;;;14.50;;
10699;SDS011;5401;41.986;21.452;2024-01-07T10:36:01;36.40;;;26.97;;
10699;SDS011;5401;41.986;21.452;2024-01-07T10:38:31;26.27;;;20.27;;
10699;SDS011;5401;41.986;21.452;2024-01-07T10:41:00;21.53;;;17.47;;
10699;SDS011;5401;41.986;21.452;2024-01-07T10:43:34;18.43;;;16.50;;
10699;SDS011;5401;41.986;21.452;2024-01-07T10:46:09;22.47;;;16.80;;
10699;SDS011;5401;41.986;21.452;2024-01-07T10:48:43;25.57;;;18.33;;
10699;SDS011;5401;41.986;21.452;2024-01-07T10:51:18;20.53;;;16.03;;
10699;SDS011;5401;41.986;21.452;2024-01-07T10:53:52;22.63;;;17.70;;
10699;SDS011;5401;41.986;21.452;2024-01-07T10:56:22;27.83;;;21.13;;
10699;SDS011;5401;41.986;21.452;2024-01-07T10:58:51;18.17;;;16.20;;
10699;SDS011;5401;41.986;21.452;2024-01-07T11:01:23;30.83;;;19.47;;
10699;SDS011;5401;41.986;21.452;2024-01-07T11:03:53;18.30;;;15.10;;
10699;SDS011;5401;41.986;21.452;2024-01-07T11:06:31;19.70;;;15.03;;
10699;SDS011;5401;41.986;21.452;2024-01-07T11:09:07;20.17;;;16.97;;
10699;SDS011;5401;41.986;21.452;2024-01-07T11:11:46;17.50;;;15.70;;
10699;SDS011;5401;41.986;21.452;2024-01-07T11:20:20;36.57;;;27.50;;
10699;SDS011;5401;41.986;21.452;2024-01-07T11:22:52;25.17;;;19.07;;
10699;SDS011;5401;41.986;21.452;2024-01-07T11:26:08;20.20;;;15.73;;
10699;SDS011;5401;41.986;21.452;2024-01-07T11:28:44;17.03;;;13.53;;
10699;SDS011;5401;41.986;21.452;2024-01-07T11:31:16;18.23;;;14.47;;
10699;SDS011;5401;41.986;21.452;2024-01-07T11:33:50;16.53;;;14.07;;
10699;SDS011;5401;41.986;21.452;2024-01-07T11:36:19;17.10;;;14.03;;
10699;SDS011;5401;41.986;21.452;2024-01-07T11:38:49;16.93;;;13.63;;
10699;SDS011;5401;41.986;21.452;2024-01-07T11:41:26;16.47;;;11.57;;
10699;SDS011;5401;41.986;21.452;2024-01-07T11:43:55;15.90;;;12.53;;
10699;SDS011;5401;41.986;21.452;2024-01-07T11:46:27;21.37;;;17.40;;
10699;SDS011;5401;41.986;21.452;2024-01-07T11:49:01;18.70;;;16.10;;
10699;SDS011;5401;41.986;21.452;2024-01-07T11:51:33;16.27;;;12.17;;
10699;SDS011;5401;41.986;21.452;2024-01-07T11:54:07;16.07;;;12.23;;
10699;SDS011;5401;41.986;21.452;2024-01-07T11:56:40;13.77;;;11.53;;
10699;SDS011;5401;41.986;21.452;2024-01-07T11:59:10;18.93;;;15.00;;
10699;SDS011;5401;41.986;21.452;2024-01-07T12:01:39;16.77;;;12.77;;
10699;SDS011;5401;41.986;21.452;2024-01-07T12:04:09;14.07;;;11.87;;
10699;SDS011;5401;41.986;21.452;2024-01-07T12:06:39;19.30;;;14.03;;
10699;SDS011;5401;41.986;21.452;2024-01-07T12:09:11;14.27;;;11.87;;
10699;SDS011;5401;41.986;21.452;2024-01-07T12:11:44;16.60;;;12.37;;
10699;SDS011;5401;41.986;21.452;2024-01-07T12:14:12;19.50;;;14.50;;
10699;SDS011;5401;41.986;21.452;2024-01-07T12:16:41;11.47;;;9.87;;
10699;SDS011;5401;41.986;21.452;2024-01-07T12:19:12;16.83;;;11.83;;
10699;SDS011;5401;41.986;21.452;2024-01-07T12:21:47;18.30;;;14.23;;
10699;SDS011;5401;41.986;21.452;2024-01-07T12:24:28;15.53;;;11.90;;
10699;SDS011;5401;41.986;21.452;2024-01-07T12:27:03;16.83;;;12.83;;
10699;SDS011;5401;41.986;21.452;2024-01-07T12:29:32;12.37;;;10.37;;
10699;SDS011;5401;41.986;21.452;2024-01-07T12:32:02;20.30;;;10.23;;
10699;SDS011;5401;41.986;21.452;2024-01-07T12:34:40;14.50;;;11.00;;
10699;SDS011;5401;41.986;21.452;2024-01-07T12:37:12;11.67;;;9.40;;
10699;SDS011;5401;41.986;21.452;2024-01-07T12:39:45;9.00;;;7.37;;
10699;SDS011;5401;41.986;21.452;2024-01-07T12:42:22;8.17;;;6.90;;
10699;SDS011;5401;41.986;21.452;2024-01-07T12:44:55;9.53;;;7.23;;
10699;SDS011;5401;41.986;21.452;2024-01-07T12:47:27;14.60;;;10.00;;
10699;SDS011;5401;41.986;21.452;2024-01-07T12:50:04;8.90;;;8.00;;
10699;SDS011;5401;41.986;21.452;2024-01-07T12:52:42;14.33;;;9.10;;
10699;SDS011;5401;41.986;21.452;2024-01-07T12:55:12;8.23;;;6.77;;
10699;SDS011;5401;41.986;21.452;2024-01-07T12:57:43;7.20;;;6.47;;
10699;SDS011;5401;41.986;21.452;2024-01-07T13:00:25;9.80;;;7.07;;
10699;SDS011;5401;41.986;21.452;2024-01-07T13:02:57;10.87;;;8.20;;
10699;SDS011;5401;41.986;21.452;2024-01-07T13:05:30;12.80;;;9.03;;
10699;SDS011;5401;41.986;21.452;2024-01-07T13:08:02;8.77;;;7.50;;
10699;SDS011;5401;41.986;21.452;2024-01-07T13:10:34;10.07;;;9.07;;
10699;SDS011;5401;41.986;21.452;2024-01-07T13:13:05;18.00;;;12.90;;
10699;SDS011;5401;41.986;21.452;2024-01-07T13:15:41;10.73;;;8.40;;
10699;SDS011;5401;41.986;21.452;2024-01-07T13:18:15;14.80;;;10.17;;
10699;SDS011;5401;41.986;21.452;2024-01-07T13:20:48;9.90;;;8.07;;
10699;SDS011;5401;41.986;21.452;2024-01-07T13:23:27;8.57;;;7.37;;
10699;SDS011;5401;41.986;21.452;2024-01-07T13:25:59;12.53;;;9.53;;
10699;SDS011;5401;41.986;21.452;2024-01-07T13:28:34;10.60;;;8.93;;
10699;SDS011;5401;41.986;21.452;2024-01-07T13:31:14;18.40;;;11.50;;
10699;SDS011;5401;41.986;21.452;2024-01-07T13:33:51;13.40;;;8.20;;
10699;SDS011;5401;41.986;21.452;2024-01-07T13:36:30;10.07;;;8.13;;
10699;SDS011;5401;41.986;21.452;2024-01-07T13:39:05;12.37;;;7.80;;
10699;SDS011;5401;41.986;21.452;2024-01-07T13:41:42;9.90;;;7.97;;
10699;SDS011;5401;41.986;21.452;2024-01-07T13:44:20;10.13;;;7.67;;
10699;SDS011;5401;41.986;21.452;2024-01-07T13:46:54;10.23;;;8.10;;
10699;SDS011;5401;41.986;21.452;2024-01-07T13:49:29;15.07;;;11.10;;
10699;SDS011;5401;41.986;21.452;2024-01-07T13:52:04;12.90;;;9.60;;
10699;SDS011;5401;41.986;21.452;2024-01-07T13:54:35;21.23;;;14.40;;
10699;SDS011;5401;41.986;21.452;2024-01-07T13:57:07;15.83;;;10.73;;
10699;SDS011;5401;41.986;21.452;2024-01-07T13:59:37;11.30;;;9.13;;
10699;SDS011;5401;41.986;21.452;2024-01-07T14:02:14;14.40;;;11.37;;
10699;SDS011;5401;41.986;21.452;2024-01-07T14:04:49;11.40;;;9.47;;
10699;SDS011;5401;41.986;21.452;2024-01-07T14:07:23;19.97;;;12.67;;
10699;SDS011;5401;41.986;21.452;2024-01-07T14:09:53;15.47;;;13.23;;
10699;SDS011;5401;41.986;21.452;2024-01-07T14:12:25;14.17;;;11.73;;
10699;SDS011;5401;41.986;21.452;2024-01-07T14:14:54;143.30;;;103.67;;
10699;SDS011;5401;41.986;21.452;2024-01-07T14:17:21;248.90;;;178.87;;
10699;SDS011;5401;41.986;21.452;2024-01-07T14:19:49;46.07;;;32.03;;
10699;SDS011;5401;41.986;21.452;2024-01-07T14:22:23;21.70;;;17.30;;
10699;SDS011;5401;41.986;21.452;2024-01-07T14:24:50;25.33;;;18.23;;
10699;SDS011;5401;41.986;21.452;2024-01-07T14:27:27;27.93;;;18.60;;
10699;SDS011;5401;41.986;21.452;2024-01-07T14:29:59;34.83;;;21.33;;
10699;SDS011;5401;41.986;21.452;2024-01-07T14:32:32;22.93;;;19.13;;
10699;SDS011;5401;41.986;21.452;2024-01-07T14:35:03;22.60;;;18.40;;
10699;SDS011;5401;41.986;21.452;2024-01-07T14:37:35;22.93;;;18.43;;
10699;SDS011;5401;41.986;21.452;2024-01-07T14:40:06;31.63;;;17.80;;
10699;SDS011;5401;41.986;21.452;2024-01-07T14:42:39;19.70;;;15.63;;
10699;SDS011;5401;41.986;21.452;2024-01-07T14:45:11;16.93;;;13.40;;
10699;SDS011;5401;41.986;21.452;2024-01-07T14:47:42;14.50;;;12.33;;
10699;SDS011;5401;41.986;21.452;2024-01-07T14:50:12;22.17;;;15.30;;
10699;SDS011;5401;41.986;21.452;2024-01-07T14:52:44;17.70;;;14.17;;
10699;SDS011;5401;41.986;21.452;2024-01-07T14:55:17;23.50;;;15.87;;